Time;durP1;ratioP1;P1;durP2;ratioP2;P2;SDS_P1;SDS_P2;PMS_P1;PMS_P2;Temp;Humidity;BMP_temperature;BMP_pressure;BME280_temperature;BME280_humidity;BME280_pressure;Samples;Min_cycle;Max_cycle;Signal;HPM_P1;HPM_P2
2022/12/14 00:00:52;;;;;;;;;50.00;38.00;;;;;1.64;56.29;99700.25;5056564;28;45564;-62
2022/12/14 00:03:19;;;;;;;;;58.00;43.33;;;;;1.59;57.06;99687.25;5054829;28;45684;-63
2022/12/14 00:05:45;;;;;;;;;43.00;38.00;;;;;1.65;55.98;99681.34;5039615;28;45430;-64
2022/12/14 00:08:12;;;;;;;;;46.67;39.33;;;;;1.66;56.00;99683.06;5057183;28;45785;-63
2022/12/14 00:10:39;;;;;;;;;54.00;41.67;;;;;1.72;55.38;99695.25;5037108;28;46671;-63
2022/12/14 00:13:06;;;;;;;;;57.67;42.33;;;;;1.70;55.86;99698.66;5054872;28;45547;-64
2022/12/14 00:15:32;;;;;;;;;55.33;40.67;;;;;1.63;55.99;99689.03;5060520;27;45584;-64
2022/12/14 00:17:58;;;;;;;;;51.33;39.33;;;;;1.59;55.56;99701.84;5055413;28;45712;-63
2022/12/14 00:20:26;;;;;;;;;47.00;37.33;;;;;1.58;55.78;99697.53;5055139;28;46237;-63
2022/12/14 00:22:52;;;;;;;;;60.33;42.00;;;;;1.63;56.19;99698.50;5055000;28;45439;-62
2022/12/14 00:25:18;;;;;;;;;50.67;39.00;;;;;1.62;56.50;99695.06;5040022;28;45431;-63
2022/12/14 00:27:44;;;;;;;;;42.67;36.00;;;;;1.66;55.66;99688.22;5055260;28;45429;-63
2022/12/14 00:30:18;;;;;;;;;49.00;38.00;;;;;1.66;55.38;99675.31;5036801;28;45966;-63
2022/12/14 00:32:45;;;;;;;;;49.33;38.33;;;;;1.76;56.59;99682.44;5068880;28;45877;-63
2022/12/14 00:35:15;;;;;;;;;51.33;39.00;;;;;1.82;56.03;99679.09;5062142;28;45668;-64
2022/12/14 00:37:41;;;;;;;;;53.00;39.33;;;;;1.84;56.05;99673.13;5042866;28;45623;-63
2022/12/14 00:40:08;;;;;;;;;58.33;42.00;;;;;1.93;55.71;99679.31;5058891;28;45564;-64
2022/12/14 00:42:34;;;;;;;;;42.50;35.50;;;;;1.89;55.56;99662.88;5054170;28;45596;-63
2022/12/14 00:45:03;;;;;;;;;41.00;33.75;;;;;1.91;56.44;99661.22;5056000;28;45421;-63
2022/12/14 00:47:29;;;;;;;;;48.25;35.75;;;;;2.05;55.80;99669.22;5059044;28;45434;-63
2022/12/14 00:49:54;;;;;;;;;49.33;36.00;;;;;2.05;55.30;99662.34;5055730;28;46236;-63
2022/12/14 00:52:20;;;;;;;;;48.33;37.00;;;;;2.10;55.44;99662.44;5054619;28;45453;-63
2022/12/14 00:54:46;;;;;;;;;52.33;41.33;;;;;2.12;54.72;99658.19;5036559;28;45495;-64
2022/12/14 00:57:11;;;;;;;;;48.25;38.25;;;;;2.13;54.61;99665.06;5057647;28;45472;-63
2022/12/14 00:59:37;;;;;;;;;54.33;40.33;;;;;2.06;54.98;99651.16;5035794;28;47500;-63
2022/12/14 01:02:03;;;;;;;;;50.67;39.33;;;;;2.08;55.08;99653.78;5055901;28;46017;-64
2022/12/14 01:04:29;;;;;;;;;48.67;39.00;;;;;2.05;55.29;99654.59;5063504;28;45511;-63
2022/12/14 01:06:55;;;;;;;;;49.67;37.67;;;;;1.96;55.51;99649.25;5054790;28;45581;-64
2022/12/14 01:09:25;;;;;;;;;41.25;34.00;;;;;1.98;55.56;99659.63;5054026;28;45826;-63
2022/12/14 01:11:52;;;;;;;;;40.75;34.75;;;;;2.02;55.55;99664.88;5054158;28;45387;-64
2022/12/14 01:14:19;;;;;;;;;41.75;32.75;;;;;2.04;55.54;99663.19;5055515;28;45530;-64
2022/12/14 01:16:45;;;;;;;;;40.00;33.25;;;;;2.19;55.92;99674.66;5057509;28;45645;-63
2022/12/14 01:19:12;;;;;;;;;32.50;30.50;;;;;2.24;55.27;99683.38;5037656;28;46082;-64
2022/12/14 01:21:38;;;;;;;;;32.50;31.25;;;;;2.23;55.40;99676.44;5053963;28;45506;-63
2022/12/14 01:24:05;;;;;;;;;35.50;31.50;;;;;2.37;55.25;99694.78;5036931;28;45478;-63
2022/12/14 01:26:34;;;;;;;;;41.00;34.25;;;;;2.32;55.02;99684.38;5058576;28;45233;-63
2022/12/14 01:29:00;;;;;;;;;37.75;31.75;;;;;2.42;54.73;99694.03;5025288;28;46549;-64
2022/12/14 01:31:34;;;;;;;;;40.25;32.75;;;;;2.46;55.62;99690.66;5042593;27;45536;-64
2022/12/14 01:34:00;;;;;;;;;40.75;34.00;;;;;2.39;55.06;99682.78;5047035;28;45478;-65
2022/12/14 01:36:28;;;;;;;;;42.25;33.25;;;;;2.27;55.37;99665.31;5050788;28;45598;-64
2022/12/14 01:38:57;;;;;;;;;39.25;32.75;;;;;2.36;56.02;99696.50;5044988;28;46192;-64
2022/12/14 01:41:35;;;;;;;;;42.50;35.50;;;;;2.35;56.05;99692.19;5046437;28;45561;-63
2022/12/14 01:44:21;;;;;;;;;2.75;1.00;;;;;2.31;55.08;99691.25;5053731;28;45896;-64
2022/12/14 01:46:56;;;;;;;;;48.25;36.25;;;;;2.26;55.62;99692.03;5052036;28;45531;-64
2022/12/14 01:49:40;;;;;;;;;41.00;33.25;;;;;2.31;55.40;99685.22;5043209;28;46030;-64
2022/12/14 01:52:22;;;;;;;;;48.75;37.00;;;;;2.39;55.88;99686.22;5046167;28;45555;-64
2022/12/14 01:54:54;;;;;;;;;43.00;33.75;;;;;2.42;56.11;99681.13;5054854;28;45346;-64
2022/12/14 01:57:26;;;;;;;;;43.25;35.00;;;;;2.47;56.55;99694.13;5046173;28;45449;-64
2022/12/14 01:59:55;;;;;;;;;49.75;37.25;;;;;2.48;56.74;99686.38;5028414;28;45517;-64
2022/12/14 02:02:21;;;;;;;;;47.75;37.75;;;;;2.47;56.99;99679.50;5046547;28;45673;-64
2022/12/14 02:04:54;;;;;;;;;53.00;41.67;;;;;2.44;57.47;99670.78;5045648;28;45538;-64
2022/12/14 02:07:21;;;;;;;;;48.00;35.75;;;;;2.48;57.50;99694.13;5047177;28;45485;-64
2022/12/14 02:09:49;;;;;;;;;41.25;35.00;;;;;2.44;58.11;99689.75;5024598;28;45807;-63
2022/12/14 02:12:47;;;;;;;;;42.00;33.00;;;;;2.52;57.87;99705.41;5047478;28;45481;-64
2022/12/14 02:15:13;;;;;;;;;48.00;35.00;;;;;2.48;58.53;99678.63;5006475;28;45544;-64
2022/12/14 02:17:42;;;;;;;;;52.67;41.33;;;;;2.42;59.63;99688.88;5028518;28;45339;-64
2022/12/14 02:20:09;;;;;;;;;50.33;38.33;;;;;2.41;60.34;99694.88;5064030;28;45751;-63
2022/12/14 02:23:01;;;;;;;;;52.75;40.75;;;;;2.39;60.38;99677.59;5058129;28;45256;-64
2022/12/14 02:25:56;;;;;;;;;53.00;42.00;;;;;2.28;61.40;99673.13;5044009;28;45268;-63
2022/12/14 02:28:36;;;;;;;;;54.33;40.33;;;;;2.17;61.34;99666.88;5053339;28;45407;-63
2022/12/14 02:31:30;;;;;;;;;53.33;39.33;;;;;1.99;61.60;99649.31;5053858;27;45995;-65
2022/12/14 02:34:11;;;;;;;;;48.33;38.33;;;;;2.00;61.45;99663.97;5043002;28;45493;-65
2022/12/14 02:37:09;;;;;;;;;51.33;41.00;;;;;1.95;62.49;99638.91;5052807;28;45429;-65
2022/12/14 02:39:54;;;;;;;;;52.67;41.00;;;;;1.84;63.77;99638.69;5050258;28;45691;-65
2022/12/14 02:43:00;;;;;;;;;57.67;42.00;;;;;1.75;64.56;99631.63;5053019;28;45683;-64
2022/12/14 02:45:40;;;;;;;;;60.33;43.67;;;;;1.58;64.84;99610.66;5039991;28;45757;-64
2022/12/14 02:48:17;;;;;;;;;50.67;41.00;;;;;1.47;65.73;99620.78;5059485;28;45492;-64
2022/12/14 02:50:46;;;;;;;;;51.67;42.00;;;;;1.48;65.22;99632.81;5051774;28;45455;-64
2022/12/14 02:53:14;;;;;;;;;56.00;42.33;;;;;1.45;65.61;99627.59;5052724;28;45655;-66
2022/12/14 02:55:50;;;;;;;;;59.00;43.67;;;;;1.32;66.06;99596.34;5051362;28;45924;-63
2022/12/14 02:58:32;;;;;;;;;60.33;45.00;;;;;1.40;66.38;99599.94;5039107;28;46027;-64
2022/12/14 03:01:01;;;;;;;;;57.67;44.00;;;;;1.26;67.22;99597.09;5057676;28;45418;-65
2022/12/14 03:03:30;;;;;;;;;56.33;42.00;;;;;1.20;67.12;99589.22;5051995;28;46654;-65
2022/12/14 03:06:13;;;;;;;;;54.67;43.67;;;;;1.27;67.36;99601.41;5052675;28;45469;-64
2022/12/14 03:08:43;;;;;;;;;57.00;42.33;;;;;1.26;66.96;99603.13;5055427;28;45408;-64
2022/12/14 03:11:13;;;;;;;;;55.67;40.33;;;;;1.32;67.43;99610.13;5058507;28;45833;-64
2022/12/14 03:13:52;;;;;;;;;53.67;41.33;;;;;1.26;67.76;99586.78;5040560;28;45670;-64
2022/12/14 03:16:27;;;;;;;;;52.67;42.00;;;;;1.32;67.97;99594.63;5040110;28;45437;-65
2022/12/14 03:19:10;;;;;;;;;59.33;45.00;;;;;1.31;67.89;99590.31;5056771;28;45493;-65
2022/12/14 03:21:43;;;;;;;;;45.67;40.00;;;;;1.34;67.69;99600.69;5060503;28;45956;-66
2022/12/14 03:24:13;;;;;;;;;55.33;40.67;;;;;1.31;67.86;99607.53;5058770;28;45401;-64
2022/12/14 03:26:45;;;;;;;;;39.67;34.00;;;;;1.25;67.90;99614.25;5059908;28;45493;-64
2022/12/14 03:29:18;;;;;;;;;52.00;37.33;;;;;1.33;67.85;99596.38;5062235;28;45461;-63
2022/12/14 03:32:09;;;;;;;;;52.00;40.00;;;;;1.34;67.84;99598.13;5059337;28;45435;-64
2022/12/14 03:34:53;;;;;;;;;50.67;40.33;;;;;1.33;67.29;99591.22;5041846;28;48078;-63
2022/12/14 03:37:26;;;;;;;;;54.67;38.67;;;;;1.40;67.36;99592.19;5060184;28;45539;-64
2022/12/14 03:39:51;;;;;;;;;47.00;36.33;;;;;1.43;66.89;99593.16;5059073;28;45477;-65
2022/12/14 03:42:25;;;;;;;;;47.33;38.00;;;;;1.47;67.17;99591.50;5056178;28;45822;-64
2022/12/14 03:45:03;;;;;;;;;47.67;38.67;;;;;1.54;67.35;99585.59;5055449;28;46038;-64
2022/12/14 03:47:52;;;;;;;;;42.67;37.00;;;;;1.56;67.02;99583.94;5055521;28;45509;-63
2022/12/14 03:50:35;;;;;;;;;49.33;39.00;;;;;1.61;66.95;99573.69;5056176;28;45292;-63
2022/12/14 03:53:09;;;;;;;;;54.00;40.67;;;;;1.59;66.38;99562.47;5058603;28;45315;-63
2022/12/14 03:55:40;;;;;;;;;52.00;40.67;;;;;1.64;66.73;99566.91;5057046;28;45441;-63
2022/12/14 03:58:50;;;;;;;;;51.33;39.33;;;;;1.56;66.62;99550.38;5064021;28;45502;-63
2022/12/14 04:01:37;;;;;;;;;59.33;42.67;;;;;1.50;67.02;99554.59;5056333;27;45570;-64
2022/12/14 04:04:19;;;;;;;;;54.67;42.00;;;;;1.48;67.21;99549.38;5060117;28;45490;-63
2022/12/14 04:07:01;;;;;;;;;51.00;40.33;;;;;1.49;66.40;99569.16;5058860;28;46328;-63
2022/12/14 04:10:02;;;;;;;;;55.33;44.00;;;;;1.42;67.08;99551.81;5055473;28;45568;-62
2022/12/14 04:21:15;;;;;;;;;59.00;44.00;;;;;1.52;66.27;99546.03;5055337;28;45576;-64
2022/12/14 04:26:38;;;;;;;;;52.33;41.67;;;;;1.31;67.05;99541.31;5058124;28;45482;-62
2022/12/14 04:32:34;;;;;;;;;54.67;42.33;;;;;1.36;66.67;99537.09;5045046;28;45482;-64
2022/12/14 04:35:08;;;;;;;;;54.67;42.00;;;;;1.35;66.88;99543.09;5025343;28;45796;-63
2022/12/14 04:37:37;;;;;;;;;44.33;37.67;;;;;1.38;67.44;99544.88;5054804;28;45428;-64
2022/12/14 04:40:24;;;;;;;;;49.33;37.33;;;;;1.44;67.62;99534.66;5054197;28;46527;-64
2022/12/14 04:42:58;;;;;;;;;48.33;36.67;;;;;1.40;66.74;99526.00;5036558;28;45479;-63
2022/12/14 04:45:38;;;;;;;;;52.00;39.33;;;;;1.45;67.57;99546.75;5069077;28;46091;-63
2022/12/14 04:48:17;;;;;;;;;46.75;36.00;;;;;1.47;67.45;99558.84;5059591;28;45407;-63
2022/12/14 04:50:54;;;;;;;;;50.00;39.00;;;;;1.45;67.53;99563.09;5044101;28;46318;-63
2022/12/14 04:53:25;;;;;;;;;54.33;43.00;;;;;1.48;66.67;99564.88;5056336;28;45317;-63
2022/12/14 04:56:09;;;;;;;;;58.33;43.33;;;;;1.42;66.38;99551.81;5054624;28;45528;-63
2022/12/14 04:58:36;;;;;;;;;58.67;42.00;;;;;1.41;66.69;99553.53;5055013;28;45470;-63
2022/12/14 05:01:23;;;;;;;;;47.00;39.67;;;;;1.44;67.42;99566.50;5036123;28;47333;-62
2022/12/14 05:04:04;;;;;;;;;45.75;36.00;;;;;1.48;66.73;99570.88;5065195;27;45393;-63
2022/12/14 05:06:53;;;;;;;;;52.67;39.00;;;;;1.46;66.55;99562.25;5054415;28;45393;-65
2022/12/14 05:09:27;;;;;;;;;53.67;43.67;;;;;1.50;66.55;99568.34;5046225;28;45623;-64
2022/12/14 05:12:19;;;;;;;;;57.67;42.33;;;;;1.50;66.76;99565.78;5041090;28;47087;-64
2022/12/14 05:14:51;;;;;;;;;51.33;38.67;;;;;1.45;67.21;99563.09;5042837;28;45642;-63
2022/12/14 05:17:17;;;;;;;;;51.67;40.67;;;;;1.37;67.21;99554.31;5054164;28;45904;-62
2022/12/14 05:19:49;;;;;;;;;53.33;41.00;;;;;1.38;67.78;99555.22;5055557;28;45454;-65
2022/12/14 05:22:16;;;;;;;;;51.00;37.75;;;;;1.39;67.76;99547.47;5061450;28;47788;-63
2022/12/14 05:24:42;;;;;;;;;50.00;39.00;;;;;1.38;68.13;99548.34;5035372;28;45683;-63
2022/12/14 05:27:08;;;;;;;;;47.00;38.00;;;;;1.37;68.30;99545.72;5053927;28;45339;-64
2022/12/14 05:29:34;;;;;;;;;51.67;39.67;;;;;1.32;67.79;99534.44;5053798;28;45469;-64
2022/12/14 05:32:00;;;;;;;;;42.67;36.00;;;;;1.46;68.23;99557.09;5054463;28;45391;-64
2022/12/14 05:34:26;;;;;;;;;50.00;37.33;;;;;1.40;67.61;99549.25;5058125;28;45411;-64
2022/12/14 05:36:51;;;;;;;;;52.67;37.00;;;;;1.41;68.10;99548.38;5059636;28;45518;-65
2022/12/14 05:39:17;;;;;;;;;53.67;40.00;;;;;1.50;67.77;99547.69;5053609;28;45470;-64
2022/12/14 05:41:43;;;;;;;;;56.33;41.33;;;;;1.57;67.35;99536.66;5053240;28;46028;-64
2022/12/14 05:44:09;;;;;;;;;62.67;43.00;;;;;1.58;66.85;99540.09;5055709;28;45494;-63
2022/12/14 05:46:35;;;;;;;;;60.00;42.00;;;;;1.37;66.72;99519.91;5053670;28;45449;-64
2022/12/14 05:49:01;;;;;;;;;50.33;39.00;;;;;1.40;67.31;99549.25;5059836;28;45465;-63
2022/12/14 05:51:26;;;;;;;;;48.33;37.00;;;;;1.44;66.61;99561.34;5039953;28;46847;-64
2022/12/14 05:53:52;;;;;;;;;50.00;36.67;;;;;1.51;67.64;99567.50;5053899;28;45488;-64
2022/12/14 05:56:17;;;;;;;;;45.33;39.00;;;;;1.50;67.91;99567.47;5053474;28;45441;-64
2022/12/14 05:58:43;;;;;;;;;50.33;40.33;;;;;1.56;67.80;99577.91;5035412;28;45402;-63
2022/12/14 06:01:10;;;;;;;;;56.67;41.00;;;;;1.59;67.32;99577.97;5053504;28;46072;-64
2022/12/14 06:03:37;;;;;;;;;54.67;42.33;;;;;1.54;68.70;99585.59;5053572;28;45528;-65
2022/12/14 06:06:06;;;;;;;;;52.00;42.00;;;;;1.49;67.91;99576.91;5035853;28;45988;-64
2022/12/14 06:08:33;;;;;;;;;56.33;42.67;;;;;1.51;68.11;99574.38;5054746;28;45432;-64
2022/12/14 06:11:08;;;;;;;;;55.00;43.33;;;;;1.56;68.09;99583.94;5039149;28;45553;-63
2022/12/14 06:13:38;;;;;;;;;50.00;39.00;;;;;1.48;68.56;99576.03;5054878;28;45448;-64
2022/12/14 06:16:23;;;;;;;;;61.67;39.67;;;;;1.49;69.14;99587.22;5053271;28;45515;-63
2022/12/14 06:18:52;;;;;;;;;54.00;39.67;;;;;1.48;68.41;99588.09;5053872;28;45526;-64
2022/12/14 06:21:21;;;;;;;;;55.33;40.00;;;;;1.47;68.37;99591.50;5053149;28;45557;-63
2022/12/14 06:23:46;;;;;;;;;52.67;38.67;;;;;1.26;68.06;99545.50;5052712;28;45498;-63
2022/12/14 06:26:13;;;;;;;;;52.33;40.00;;;;;1.53;69.00;99589.03;5053302;28;45700;-63
2022/12/14 06:28:39;;;;;;;;;55.00;44.67;;;;;1.56;68.70;99588.22;5051143;28;45588;-64
2022/12/14 06:31:05;;;;;;;;;55.67;41.67;;;;;1.50;68.43;99583.84;5052951;28;45445;-65
2022/12/14 06:33:33;;;;;;;;;53.67;43.67;;;;;1.43;69.52;99575.09;5052972;28;45424;-64
2022/12/14 06:36:00;;;;;;;;;53.33;41.67;;;;;1.43;69.77;99589.72;5056611;28;45428;-63
2022/12/14 06:38:26;;;;;;;;;50.33;40.00;;;;;1.25;69.74;99560.09;5056175;28;45583;-63
2022/12/14 06:40:51;;;;;;;;;51.33;42.00;;;;;1.30;69.69;99567.94;5056375;28;45485;-64
2022/12/14 06:43:17;;;;;;;;;51.33;38.33;;;;;1.31;69.88;99574.84;5063419;28;45653;-63
2022/12/14 06:45:42;;;;;;;;;52.67;39.33;;;;;1.40;69.75;99579.31;5034736;28;45517;-63
2022/12/14 06:48:08;;;;;;;;;52.67;42.00;;;;;1.43;70.39;99579.38;5055750;28;45384;-64
2022/12/14 06:50:33;;;;;;;;;50.33;37.00;;;;;1.42;69.80;99590.53;5052632;28;46438;-63
2022/12/14 06:53:00;;;;;;;;;56.00;42.33;;;;;1.40;69.99;99587.94;5053083;28;45430;-64
2022/12/14 06:55:26;;;;;;;;;55.67;43.00;;;;;1.37;70.12;99580.13;5056336;28;45376;-65
2022/12/14 06:57:53;;;;;;;;;54.33;41.33;;;;;1.35;70.34;99573.19;5057255;27;45530;-64
2022/12/14 07:00:21;;;;;;;;;61.00;46.67;;;;;1.46;69.91;99594.91;5056446;28;46170;-64
2022/12/14 07:02:47;;;;;;;;;53.00;43.33;;;;;1.43;70.90;99592.28;5056710;28;45438;-64
2022/12/14 07:05:14;;;;;;;;;62.67;46.00;;;;;1.45;69.81;99599.22;5056570;28;45434;-64
2022/12/14 07:07:41;;;;;;;;;63.67;45.67;;;;;1.31;69.98;99581.72;5052713;28;45506;-63
2022/12/14 07:10:09;;;;;;;;;62.33;44.00;;;;;1.43;70.07;99613.78;5051155;28;47899;-63
2022/12/14 07:12:35;;;;;;;;;54.67;41.33;;;;;1.45;70.47;99613.84;5053149;28;45565;-63
2022/12/14 07:15:01;;;;;;;;;56.33;42.00;;;;;1.46;70.86;99619.00;5050997;28;45493;-64
2022/12/14 07:17:26;;;;;;;;;20.67;17.00;;;;;1.48;70.29;99624.22;5051004;28;45506;-64
2022/12/14 07:19:52;;;;;;;;;62.00;45.67;;;;;1.42;70.26;99626.66;5051166;28;47752;-63
2022/12/14 07:22:21;;;;;;;;;52.67;39.33;;;;;1.41;70.54;99632.66;5055830;28;45471;-64
2022/12/14 07:24:47;;;;;;;;;47.67;38.33;;;;;1.41;71.79;99630.09;5050605;28;45537;-63
2022/12/14 07:27:12;;;;;;;;;54.00;41.00;;;;;1.44;71.41;99636.16;5052448;28;45519;-63
2022/12/14 07:29:38;;;;;;;;;56.33;39.00;;;;;1.47;71.36;99640.50;5052069;28;46237;-64
2022/12/14 07:32:03;;;;;;;;;57.33;43.00;;;;;1.57;71.02;99652.78;5051072;28;45836;-64
2022/12/14 07:34:29;;;;;;;;;64.00;46.33;;;;;1.56;70.54;99656.19;5052398;28;45300;-64
2022/12/14 07:36:55;;;;;;;;;62.00;44.33;;;;;1.43;71.56;99638.72;5034246;28;47229;-63
2022/12/14 07:39:21;;;;;;;;;56.67;43.67;;;;;1.57;71.14;99663.13;5034904;28;45648;-63
2022/12/14 07:41:49;;;;;;;;;53.33;40.67;;;;;1.51;71.15;99642.34;5042214;28;45741;-63
2022/12/14 07:44:16;;;;;;;;;54.67;39.00;;;;;1.64;71.41;99667.56;5052241;28;45393;-65
2022/12/14 07:46:42;;;;;;;;;50.67;36.33;;;;;1.72;70.92;99672.00;5052122;28;45386;-64
2022/12/14 07:49:08;;;;;;;;;45.50;35.75;;;;;1.79;70.49;99668.72;5033704;28;48292;-65
2022/12/14 07:51:36;;;;;;;;;48.00;36.00;;;;;1.82;69.96;99654.16;5051016;28;45375;-63
2022/12/14 07:54:04;;;;;;;;;44.50;35.00;;;;;1.96;69.59;99675.06;5055368;28;45402;-64
2022/12/14 07:56:38;;;;;;;;;46.50;33.00;;;;;2.04;69.27;99676.13;5056340;28;45493;-63
2022/12/14 07:59:07;;;;;;;;;46.25;32.25;;;;;2.02;69.33;99662.31;5055914;28;45466;-63
2022/12/14 08:01:34;;;;;;;;;41.75;32.25;;;;;2.09;68.70;99661.56;5054305;28;45925;-64
2022/12/14 08:04:06;;;;;;;;;48.67;36.33;;;;;2.17;68.61;99676.34;5061445;28;45309;-62
2022/12/14 08:06:32;;;;;;;;;43.75;35.50;;;;;2.17;68.26;99669.47;5054828;28;45780;-64
2022/12/14 08:08:59;;;;;;;;;41.75;36.00;;;;;2.23;68.23;99672.16;5059771;28;45534;-62
2022/12/14 08:11:25;;;;;;;;;53.00;39.00;;;;;2.33;68.04;99683.53;5067948;28;45433;-63
2022/12/14 08:13:55;;;;;;;;;55.33;40.67;;;;;1.93;69.05;99628.53;5060943;28;45429;-64
2022/12/14 08:16:21;;;;;;;;;63.33;45.33;;;;;2.13;68.22;99681.44;5055690;28;45450;-62
2022/12/14 08:18:47;;;;;;;;;51.00;40.00;;;;;2.10;67.94;99678.78;5054746;28;45724;-61
2022/12/14 08:21:14;;;;;;;;;58.00;43.33;;;;;2.07;68.25;99681.34;5037815;28;45810;-63
2022/12/14 08:23:40;;;;;;;;;58.00;40.00;;;;;2.00;69.01;99681.19;5059566;28;45398;-64
2022/12/14 08:26:07;;;;;;;;;55.33;38.00;;;;;1.95;69.52;99685.41;5057119;28;45517;-63
2022/12/14 08:28:34;;;;;;;;;57.33;44.00;;;;;1.98;69.29;99686.31;5036802;28;47766;-63
2022/12/14 08:31:11;;;;;;;;;49.00;40.00;;;;;1.95;68.71;99680.25;5054922;28;45479;-64
2022/12/14 08:33:38;;;;;;;;;57.67;43.00;;;;;1.97;69.29;99675.94;5042329;28;45344;-63
2022/12/14 08:36:25;;;;;;;;;50.00;39.67;;;;;2.01;68.99;99667.44;5059395;28;45556;-63
2022/12/14 08:38:56;;;;;;;;;63.00;45.00;;;;;2.03;68.36;99679.53;5045971;28;46638;-63
2022/12/14 08:41:23;;;;;;;;;59.00;43.67;;;;;1.98;67.85;99683.72;5058755;28;45466;-63
2022/12/14 08:43:52;;;;;;;;;54.00;42.00;;;;;2.04;68.72;99698.47;5039147;28;45601;-63
2022/12/14 08:46:19;;;;;;;;;55.67;40.67;;;;;2.10;68.23;99703.75;5063448;28;45387;-63
2022/12/14 08:48:46;;;;;;;;;54.00;42.00;;;;;1.98;68.46;99686.31;5054564;28;45443;-63
2022/12/14 08:51:11;;;;;;;;;59.67;45.67;;;;;2.04;68.42;99681.28;5054807;28;45471;-63
2022/12/14 08:53:38;;;;;;;;;56.33;44.33;;;;;2.16;67.44;99698.72;5053919;28;45488;-63
2022/12/14 08:56:13;;;;;;;;;56.00;43.67;;;;;2.33;67.58;99689.56;5052475;28;45586;-63
2022/12/14 08:58:39;;;;;;;;;57.00;45.00;;;;;2.43;66.75;99695.78;5030309;28;47074;-63
2022/12/14 09:01:12;;;;;;;;;57.67;44.00;;;;;2.61;66.42;99699.53;5031834;28;45347;-63
2022/12/14 09:03:41;;;;;;;;;61.67;43.33;;;;;2.72;65.96;99701.44;5055468;28;45931;-65
2022/12/14 09:06:12;;;;;;;;;51.00;39.00;;;;;2.76;66.08;99716.19;5030912;28;45544;-64
2022/12/14 09:08:38;;;;;;;;;60.00;40.67;;;;;2.69;66.05;99708.28;5035854;28;45490;-62
2022/12/14 09:11:05;;;;;;;;;53.33;43.67;;;;;2.68;66.85;99712.59;5024965;28;46386;-64
2022/12/14 09:13:32;;;;;;;;;55.33;40.33;;;;;2.66;66.45;99716.88;5047886;28;45460;-63
2022/12/14 09:16:04;;;;;;;;;49.67;38.00;;;;;2.68;65.47;99699.69;5038721;28;45427;-63
2022/12/14 09:18:30;;;;;;;;;51.75;38.00;;;;;2.77;65.85;99714.47;5043911;28;45525;-63
2022/12/14 09:20:57;;;;;;;;;52.50;39.75;;;;;2.86;65.60;99718.91;5057470;28;45478;-63
2022/12/14 09:23:25;;;;;;;;;48.00;36.00;;;;;2.94;65.91;99710.47;5035898;28;45568;-62
2022/12/14 09:26:15;;;;;;;;;63.00;48.00;;;;;3.08;63.89;99733.94;5057989;28;45363;-64
2022/12/14 09:28:47;;;;;;;;;53.33;43.33;;;;;3.04;64.04;99737.34;5045393;28;46271;-63
2022/12/14 09:31:15;;;;;;;;;59.00;43.00;;;;;3.05;64.80;99752.00;5057727;27;45714;-64
2022/12/14 09:33:41;;;;;;;;;52.33;41.33;;;;;3.08;64.81;99757.22;5054167;28;45431;-64
2022/12/14 09:36:11;;;;;;;;;48.75;37.75;;;;;3.15;64.22;99753.88;5052740;28;45420;-63
2022/12/14 09:38:38;;;;;;;;;51.75;40.00;;;;;3.21;63.70;99747.97;5053633;28;45776;-64
2022/12/14 09:41:12;;;;;;;;;49.50;36.50;;;;;3.27;64.60;99757.53;5045666;28;45649;-64
2022/12/14 09:43:42;;;;;;;;;47.50;36.00;;;;;3.32;63.20;99756.78;5053625;28;46713;-63
2022/12/14 09:46:20;;;;;;;;;43.75;35.50;;;;;3.46;62.70;99764.72;5041672;28;45420;-63
2022/12/14 09:48:48;;;;;;;;;49.75;38.25;;;;;3.53;63.75;99747.56;5057061;28;46140;-64
2022/12/14 09:51:20;;;;;;;;;47.25;37.00;;;;;3.67;61.93;99748.63;5025086;28;45481;-63
2022/12/14 09:53:49;;;;;;;;;47.25;37.00;;;;;3.77;61.90;99742.75;5033407;28;45618;-62
2022/12/14 09:56:19;;;;;;;;;53.25;38.50;;;;;4.07;61.51;99763.84;5039549;28;45493;-63
2022/12/14 09:58:54;;;;;;;;;50.25;41.50;;;;;4.40;61.01;99740.03;5056436;28;46090;-63
2022/12/14 10:01:38;;;;;;;;;52.75;40.00;;;;;4.86;60.45;99749.19;5035305;28;45619;-62
2022/12/14 10:04:09;;;;;;;;;60.33;44.00;;;;;5.09;58.02;99746.75;5059707;28;45777;-63
2022/12/14 10:06:43;;;;;;;;;56.00;46.00;;;;;5.18;56.67;99739.91;5052226;28;45745;-62
2022/12/14 10:09:36;;;;;;;;;58.33;44.33;;;;;6.04;54.87;99740.47;5057622;28;45375;-64
2022/12/14 10:12:16;;;;;;;;;56.25;40.25;;;;;6.37;54.24;99743.19;5055113;28;45351;-63
2022/12/14 10:14:51;;;;;;;;;50.50;41.00;;;;;6.47;53.71;99753.63;5056847;28;45648;-64
2022/12/14 10:17:33;;;;;;;;;46.50;35.00;;;;;6.72;53.57;99747.63;5039783;28;45460;-63
2022/12/14 10:20:17;;;;;;;;;50.50;37.50;;;;;7.48;52.43;99745.91;5051709;28;48102;-63
2022/12/14 10:22:46;;;;;;;;;49.00;38.75;;;;;7.75;52.17;99741.50;5034402;28;45579;-63
2022/12/14 10:25:26;;;;;;;;;46.75;34.50;;;;;7.75;51.36;99741.50;5053223;28;45569;-63
2022/12/14 10:28:02;;;;;;;;;51.25;39.00;;;;;7.85;51.13;99736.28;5053286;28;45418;-63
2022/12/14 10:30:29;;;;;;;;;53.50;39.75;;;;;8.54;50.29;99731.66;5045063;28;46256;-63
2022/12/14 10:33:23;;;;;;;;;40.75;26.50;;;;;11.04;46.62;99716.75;5043410;28;45465;-63
2022/12/14 10:35:52;;;;;;;;;44.25;34.50;;;;;13.48;41.22;99723.06;5024475;28;45645;-65
2022/12/14 10:38:40;;;;;;;;;51.75;38.75;;;;;14.60;38.34;99725.19;5031719;28;45536;-64
2022/12/14 10:41:18;;;;;;;;;42.25;35.00;;;;;15.79;36.21;99723.03;5044311;28;45678;-63
2022/12/14 10:43:56;;;;;;;;;42.75;36.00;;;;;15.89;35.23;99720.94;5044972;28;45783;-62
2022/12/14 10:46:46;;;;;;;;;49.00;37.25;;;;;14.46;35.67;99716.81;5036279;28;45468;-63
2022/12/14 10:49:47;;;;;;;;;54.25;42.00;;;;;13.15;37.62;99729.09;5045184;28;45493;-64
2022/12/14 10:52:18;;;;;;;;;55.75;41.50;;;;;12.34;38.91;99732.72;5040564;28;46619;-63
2022/12/14 10:54:47;;;;;;;;;59.25;42.25;;;;;11.41;40.41;99736.22;5033315;28;45524;-63
2022/12/14 10:57:21;;;;;;;;;51.75;40.50;;;;;10.80;42.09;99741.56;5033546;28;45455;-64
2022/12/14 10:59:47;;;;;;;;;52.75;39.75;;;;;10.15;42.48;99731.06;5046041;28;45528;-64
2022/12/14 11:02:23;;;;;;;;;54.75;42.25;;;;;9.61;43.72;99754.34;5039263;27;45719;-63
2022/12/14 11:04:56;;;;;;;;;48.75;39.00;;;;;9.15;44.62;99749.50;5036781;28;45468;-64
2022/12/14 11:07:24;;;;;;;;;43.50;36.75;;;;;8.78;45.26;99749.78;5036747;28;45400;-64
2022/12/14 11:09:51;;;;;;;;;52.50;39.50;;;;;8.49;45.07;99742.13;5035179;28;45506;-64
2022/12/14 11:12:26;;;;;;;;;51.75;40.00;;;;;8.33;45.42;99751.75;5036713;28;45448;-63
2022/12/14 11:14:59;;;;;;;;;51.50;37.50;;;;;8.10;46.11;99764.00;5034745;28;45459;-65
2022/12/14 11:17:39;;;;;;;;;48.75;39.50;;;;;7.81;46.80;99759.75;5038407;28;45938;-63
2022/12/14 11:20:08;;;;;;;;;47.25;38.50;;;;;7.57;46.66;99764.13;5021017;28;45505;-63
2022/12/14 11:22:47;;;;;;;;;47.25;36.00;;;;;7.40;47.47;99763.28;5056727;28;46056;-64
2022/12/14 11:25:34;;;;;;;;;49.00;37.25;;;;;7.22;47.32;99767.63;5039334;28;45595;-63
2022/12/14 11:28:14;;;;;;;;;53.25;39.75;;;;;7.15;47.59;99770.25;5051007;28;45398;-64
2022/12/14 11:30:40;;;;;;;;;47.75;39.00;;;;;7.04;47.75;99770.22;5052113;28;45635;-64
2022/12/14 11:33:05;;;;;;;;;57.75;43.25;;;;;7.03;47.64;99768.50;5053552;28;47564;-64
2022/12/14 11:35:31;;;;;;;;;53.25;44.00;;;;;6.67;48.30;99738.06;5052314;28;45647;-65
2022/12/14 11:38:00;;;;;;;;;57.00;44.00;;;;;6.64;48.26;99757.13;5037541;28;45514;-64
2022/12/14 11:40:26;;;;;;;;;57.50;44.25;;;;;6.29;48.83;99742.31;5063621;28;45410;-63
2022/12/14 11:43:03;;;;;;;;;58.50;43.25;;;;;6.40;48.37;99768.34;5058961;28;45500;-64
2022/12/14 11:45:32;;;;;;;;;53.75;39.50;;;;;6.50;48.80;99777.03;5055388;28;45307;-65
2022/12/14 11:48:13;;;;;;;;;50.25;41.75;;;;;6.56;48.09;99785.75;5056392;28;45576;-65
2022/12/14 11:50:39;;;;;;;;;55.00;44.50;;;;;6.72;47.92;99781.47;5054592;28;45496;-64
2022/12/14 11:53:09;;;;;;;;;55.25;42.75;;;;;6.77;48.22;99771.06;5055598;28;45536;-64
2022/12/14 11:55:38;;;;;;;;;56.00;41.25;;;;;6.88;47.78;99792.78;5039286;28;45572;-64
2022/12/14 11:58:12;;;;;;;;;54.75;42.25;;;;;6.87;47.99;99774.53;5064513;28;45398;-64
2022/12/14 12:00:46;;;;;;;;;56.00;44.50;;;;;6.73;47.68;99756.28;5055347;28;45423;-63